createdAt,value
2022-12-14T00:00:20.590Z,2.67
2022-12-14T00:01:23.719Z,1.00
2022-12-14T00:02:27.061Z,0.00
2022-12-14T00:03:30.285Z,0.00
2022-12-14T00:04:33.781Z,0.00
2022-12-14T00:05:36.983Z,3.71
2022-12-14T00:06:40.508Z,6.33
2022-12-14T00:07:43.624Z,1.71
2022-12-14T00:08:47.117Z,0.00
2022-12-14T00:09:50.515Z,0.00
2022-12-14T00:10:53.788Z,0.00
2022-12-14T00:11:57.173Z,0.00
2022-12-14T00:13:00.255Z,0.00
2022-12-14T00:14:03.429Z,0.33
2022-12-14T00:15:06.618Z,1.86
2022-12-14T00:16:10.042Z,2.33
2022-12-14T00:17:14.045Z,0.00
2022-12-14T00:18:22.365Z,0.00
2022-12-14T00:19:21.809Z,0.50
2022-12-14T00:20:25.292Z,1.00
2022-12-14T00:21:29.110Z,0.14
2022-12-14T00:22:32.579Z,0.00
2022-12-14T00:23:38.847Z,0.00
2022-12-14T00:24:40.282Z,0.00
2022-12-14T00:25:43.570Z,0.43
2022-12-14T00:26:47.970Z,0.50
2022-12-14T00:27:51.530Z,0.00
2022-12-14T00:28:54.744Z,0.86
2022-12-14T00:29:57.923Z,0.57
2022-12-14T00:31:01.287Z,0.00
2022-12-14T00:32:04.392Z,0.00
2022-12-14T00:33:07.565Z,0.00
2022-12-14T00:34:10.949Z,0.43
2022-12-14T00:35:14.144Z,0.00
2022-12-14T00:36:17.324Z,1.43
2022-12-14T00:37:20.500Z,2.29
2022-12-14T00:38:23.518Z,0.43
2022-12-14T00:39:26.662Z,0.57
2022-12-14T00:40:29.947Z,0.00
2022-12-14T00:41:33.031Z,0.00
2022-12-14T00:42:36.102Z,0.00
2022-12-14T00:43:39.189Z,0.00
2022-12-14T00:44:42.317Z,0.43
2022-12-14T00:45:45.244Z,1.29
2022-12-14T00:46:48.295Z,5.14
2022-12-14T00:47:51.291Z,4.71
2022-12-14T00:48:54.371Z,2.14
2022-12-14T00:49:57.568Z,1.57
2022-12-14T00:51:00.632Z,1.00
2022-12-14T00:52:03.690Z,1.57
2022-12-14T00:53:06.895Z,1.50
2022-12-14T00:54:09.996Z,2.29
2022-12-14T00:55:13.053Z,2.43
2022-12-14T00:56:16.134Z,1.14
2022-12-14T00:57:19.317Z,1.57
2022-12-14T00:58:22.396Z,0.67
2022-12-14T00:59:27.315Z,0.00
2022-12-14T01:00:29.784Z,4.00
2022-12-14T01:01:33.247Z,8.00
2022-12-14T01:02:36.415Z,14.14
2022-12-14T01:03:39.497Z,13.86
2022-12-14T01:04:42.510Z,4.33
2022-12-14T01:05:49.080Z,1.57
2022-12-14T01:06:49.690Z,0.00
2022-12-14T01:07:52.875Z,0.00
2022-12-14T01:08:55.951Z,0.00
2022-12-14T01:09:59.135Z,0.43
2022-12-14T01:11:02.219Z,0.57
2022-12-14T01:12:05.263Z,0.00
2022-12-14T01:13:08.168Z,0.33
2022-12-14T01:14:11.249Z,1.00
2022-12-14T01:15:14.427Z,0.43
2022-12-14T01:16:17.736Z,0.00
2022-12-14T01:17:21.012Z,0.14
2022-12-14T01:18:24.179Z,0.86
2022-12-14T01:19:27.170Z,2.00
2022-12-14T01:20:30.248Z,1.00
2022-12-14T01:21:33.312Z,0.00
2022-12-14T01:22:36.395Z,0.00
2022-12-14T01:23:39.479Z,1.00
2022-12-14T01:24:42.556Z,3.43
2022-12-14T01:25:46.246Z,4.43
2022-12-14T01:26:50.354Z,1.62
2022-12-14T01:27:53.540Z,1.33
2022-12-14T01:28:56.723Z,1.86
2022-12-14T01:29:59.759Z,2.50
2022-12-14T01:31:03.040Z,2.00
2022-12-14T01:32:06.267Z,1.57
2022-12-14T01:33:09.544Z,1.17
2022-12-14T01:34:12.730Z,0.86
2022-12-14T01:35:15.913Z,0.57
2022-12-14T01:36:19.330Z,0.43
2022-12-14T01:37:22.263Z,0.29
2022-12-14T01:38:25.229Z,0.00
2022-12-14T01:39:28.354Z,0.00
2022-12-14T01:40:31.512Z,0.00
2022-12-14T01:41:35.323Z,0.00
2022-12-14T01:42:38.488Z,0.00
2022-12-14T01:43:41.528Z,0.00
2022-12-14T01:44:44.446Z,0.00
2022-12-14T01:45:47.520Z,0.33
2022-12-14T01:46:51.039Z,0.71
2022-12-14T01:47:54.195Z,0.57
2022-12-14T01:48:57.370Z,0.00
2022-12-14T01:50:00.319Z,0.00
2022-12-14T01:51:03.203Z,0.43
2022-12-14T01:52:06.407Z,0.86
2022-12-14T01:53:09.380Z,1.33
2022-12-14T01:54:12.462Z,3.33
2022-12-14T01:55:15.518Z,5.00
2022-12-14T01:56:18.522Z,0.00
2022-12-14T01:57:21.706Z,0.00
2022-12-14T01:58:24.886Z,0.00
2022-12-14T01:59:28.067Z,0.00
2022-12-14T02:00:31.068Z,0.00
2022-12-14T02:01:34.250Z,0.00
2022-12-14T02:02:37.413Z,0.43
2022-12-14T02:03:40.731Z,1.43
2022-12-14T02:04:43.875Z,1.14
2022-12-14T02:05:47.052Z,0.00
2022-12-14T02:06:50.122Z,0.00
2022-12-14T02:22:37.043Z,0.00
2022-12-14T02:23:40.227Z,0.00
2022-12-14T02:24:43.301Z,0.00
2022-12-14T02:25:49.495Z,0.00
2022-12-14T02:26:50.594Z,0.00
2022-12-14T02:27:53.630Z,0.00
2022-12-14T02:28:56.754Z,0.00
2022-12-14T02:29:59.823Z,0.00
2022-12-14T02:31:02.857Z,0.00
2022-12-14T02:32:05.989Z,0.00
2022-12-14T02:33:09.133Z,0.00
2022-12-14T02:34:12.000Z,0.00
2022-12-14T02:35:14.925Z,0.00
2022-12-14T02:36:17.993Z,0.00
2022-12-14T02:37:21.037Z,0.00
2022-12-14T02:38:23.949Z,0.00
2022-12-14T02:39:27.029Z,0.00
2022-12-14T02:40:30.131Z,0.67
2022-12-14T02:41:33.248Z,1.33
2022-12-14T02:42:36.268Z,0.00
2022-12-14T02:43:39.244Z,0.00
2022-12-14T02:44:42.427Z,0.00
2022-12-14T02:45:45.507Z,0.00
2022-12-14T02:46:50.517Z,0.00
2022-12-14T02:47:52.895Z,0.00
2022-12-14T02:48:56.083Z,0.43
2022-12-14T02:49:59.266Z,0.57
2022-12-14T02:51:02.341Z,0.00
2022-12-14T02:52:05.517Z,0.00
2022-12-14T02:53:08.584Z,0.00
2022-12-14T02:54:11.578Z,0.33
2022-12-14T02:55:14.757Z,0.14
2022-12-14T02:56:18.039Z,0.00
2022-12-14T02:57:21.124Z,0.00
2022-12-14T02:58:24.201Z,0.00
2022-12-14T02:59:27.381Z,0.00
2022-12-14T03:00:30.557Z,0.00
2022-12-14T03:01:33.689Z,0.86
2022-12-14T03:02:37.071Z,1.14
2022-12-14T03:03:40.234Z,0.00
2022-12-14T03:04:43.393Z,0.00
2022-12-14T03:05:46.439Z,0.00
2022-12-14T03:06:49.344Z,0.00
2022-12-14T03:07:52.524Z,0.00
2022-12-14T03:08:55.608Z,0.00
2022-12-14T03:09:58.588Z,0.00
2022-12-14T03:11:01.763Z,0.00
2022-12-14T03:12:04.849Z,0.00
2022-12-14T03:13:07.838Z,0.00
2022-12-14T03:14:10.899Z,0.00
2022-12-14T03:15:14.086Z,0.00
2022-12-14T03:16:17.427Z,0.00
2022-12-14T03:17:20.552Z,0.00
2022-12-14T03:18:23.866Z,0.00
2022-12-14T03:19:27.013Z,0.00
2022-12-14T03:20:30.506Z,0.00
2022-12-14T03:21:33.653Z,0.00
2022-12-14T03:22:36.561Z,0.00
2022-12-14T03:23:39.741Z,0.00
2022-12-14T03:24:42.830Z,0.00
2022-12-14T03:25:46.002Z,0.00
2022-12-14T03:26:50.206Z,0.00
2022-12-14T03:27:53.402Z,0.00
2022-12-14T03:28:56.351Z,0.00
2022-12-14T03:29:59.350Z,0.00
2022-12-14T03:31:02.541Z,0.00
2022-12-14T03:34:13.055Z,0.00
2022-12-14T03:36:18.439Z,0.00
2022-12-14T03:37:21.759Z,0.00
2022-12-14T03:38:25.394Z,0.29
2022-12-14T03:39:28.595Z,0.57
2022-12-14T03:40:31.982Z,0.00
2022-12-14T03:41:35.374Z,0.00
2022-12-14T03:43:42.455Z,0.00
2022-12-14T03:44:49.544Z,0.50
2022-12-14T03:45:51.511Z,0.50
2022-12-14T03:46:54.867Z,0.00
2022-12-14T03:47:58.110Z,0.00
2022-12-14T03:49:01.537Z,0.00
2022-12-14T03:50:04.579Z,0.43
2022-12-14T03:51:07.670Z,0.57
2022-12-14T03:52:10.786Z,0.00
2022-12-14T03:53:13.957Z,0.00
2022-12-14T03:54:17.340Z,0.71
2022-12-14T03:55:20.627Z,2.14
2022-12-14T03:56:23.906Z,2.57
2022-12-14T03:57:27.093Z,5.00
2022-12-14T03:58:30.477Z,8.00
2022-12-14T03:59:33.662Z,1.33
2022-12-14T04:00:36.960Z,0.00
2022-12-14T04:01:40.289Z,0.00
2022-12-14T04:02:43.689Z,0.43
2022-12-14T04:03:47.001Z,0.57
2022-12-14T04:04:50.285Z,0.00
2022-12-14T04:05:53.481Z,0.00
2022-12-14T04:06:56.752Z,0.00
2022-12-14T04:07:59.930Z,0.00
2022-12-14T04:09:03.224Z,0.00
2022-12-14T04:10:06.270Z,0.00
2022-12-14T04:11:09.274Z,0.00
2022-12-14T04:12:12.370Z,0.00
2022-12-14T04:13:15.744Z,0.00
2022-12-14T04:14:18.830Z,0.00
2022-12-14T04:15:21.908Z,0.00
2022-12-14T04:16:25.121Z,0.14
2022-12-14T04:17:28.366Z,0.29
2022-12-14T04:18:31.650Z,0.00
2022-12-14T04:19:35.016Z,0.14
2022-12-14T04:20:38.219Z,0.71
2022-12-14T04:21:42.016Z,0.71
2022-12-14T04:22:44.991Z,0.50
2022-12-14T04:23:48.386Z,1.29
2022-12-14T04:24:51.672Z,2.57
2022-12-14T04:25:55.052Z,0.67
2022-12-14T04:26:58.333Z,0.00
2022-12-14T04:28:01.521Z,0.00
2022-12-14T04:29:04.602Z,0.00
2022-12-14T04:30:07.771Z,0.00
2022-12-14T04:31:10.761Z,0.00
2022-12-14T04:32:14.088Z,0.00
2022-12-14T04:33:17.324Z,0.00
2022-12-14T04:34:20.409Z,0.00
2022-12-14T04:37:29.030Z,0.67
2022-12-14T04:38:32.110Z,0.00
2022-12-14T04:39:35.190Z,0.00
2022-12-14T04:40:38.468Z,0.00
2022-12-14T04:41:41.447Z,0.00
2022-12-14T04:42:44.629Z,0.00
2022-12-14T04:43:48.963Z,0.00
2022-12-14T04:45:54.424Z,0.00
2022-12-14T04:46:57.558Z,0.67
2022-12-14T04:48:00.751Z,0.00
2022-12-14T04:49:03.828Z,0.00
2022-12-14T04:50:06.889Z,0.00
2022-12-14T04:51:09.873Z,0.43
2022-12-14T04:52:13.164Z,0.57
2022-12-14T04:53:16.443Z,0.00
2022-12-14T04:54:19.625Z,0.00
2022-12-14T04:55:22.884Z,0.00
2022-12-14T04:56:25.971Z,0.00
2022-12-14T04:57:29.270Z,0.00
2022-12-14T04:58:32.513Z,0.00
2022-12-14T04:59:35.946Z,0.00
2022-12-14T05:00:39.431Z,0.00
2022-12-14T05:01:42.920Z,0.00
2022-12-14T05:02:46.172Z,0.00
2022-12-14T05:03:49.496Z,0.00
2022-12-14T05:04:52.885Z,0.00
2022-12-14T05:05:56.163Z,0.00
2022-12-14T05:06:59.246Z,0.00
2022-12-14T05:08:02.629Z,0.00
2022-12-14T05:09:06.014Z,0.00
2022-12-14T05:10:09.304Z,0.00
2022-12-14T05:11:41.307Z,0.43
2022-12-14T05:12:16.891Z,0.50
2022-12-14T05:13:19.974Z,0.00
2022-12-14T05:14:23.389Z,0.00
2022-12-14T05:15:26.437Z,0.00
2022-12-14T05:16:29.599Z,0.00
2022-12-14T05:17:32.705Z,0.00
2022-12-14T05:18:35.988Z,0.00
2022-12-14T05:19:39.191Z,0.00
2022-12-14T05:20:42.555Z,0.00
2022-12-14T05:21:45.526Z,0.00
2022-12-14T05:22:48.510Z,0.00
2022-12-14T05:23:51.468Z,0.00
2022-12-14T05:24:54.665Z,0.86
2022-12-14T05:25:57.844Z,2.00
2022-12-14T05:27:00.958Z,0.57
2022-12-14T05:28:04.012Z,0.00
2022-12-14T05:29:07.044Z,0.00
2022-12-14T05:30:09.935Z,0.00
2022-12-14T05:31:13.087Z,0.00
2022-12-14T05:32:16.121Z,0.00
2022-12-14T05:33:19.103Z,0.00
2022-12-14T05:34:22.198Z,0.00
2022-12-14T05:35:25.290Z,0.00
2022-12-14T05:36:28.339Z,0.00
2022-12-14T05:37:31.365Z,0.00
2022-12-14T05:38:34.188Z,0.00
2022-12-14T05:39:37.188Z,0.00
2022-12-14T05:40:40.343Z,0.00
2022-12-14T05:41:43.427Z,0.00
2022-12-14T05:42:49.804Z,0.00
2022-12-14T05:43:50.910Z,0.00
2022-12-14T05:44:54.025Z,0.17
2022-12-14T05:45:57.129Z,1.67
2022-12-14T05:47:00.390Z,1.83
2022-12-14T05:48:03.452Z,0.00
2022-12-14T05:49:06.419Z,0.00
2022-12-14T05:50:09.606Z,0.00
2022-12-14T05:51:12.879Z,0.00
2022-12-14T05:52:15.829Z,0.29
2022-12-14T05:53:18.834Z,0.00
2022-12-14T05:54:21.912Z,0.00
2022-12-14T05:55:25.096Z,0.00
2022-12-14T05:56:28.171Z,0.00
2022-12-14T05:57:31.255Z,0.00
2022-12-14T05:58:34.331Z,0.00
2022-12-14T05:59:37.413Z,0.00
2022-12-14T06:00:40.390Z,0.00
2022-12-14T06:01:43.518Z,0.00
2022-12-14T06:02:46.546Z,0.00
2022-12-14T06:03:49.526Z,0.00
2022-12-14T06:04:52.606Z,0.00
2022-12-14T06:05:55.577Z,0.00
2022-12-14T06:06:58.765Z,0.00
2022-12-14T06:08:01.841Z,0.00
2022-12-14T06:09:05.021Z,0.00
2022-12-14T06:10:08.002Z,0.00
2022-12-14T06:11:10.980Z,0.00
2022-12-14T06:12:14.056Z,0.00
2022-12-14T06:13:17.134Z,0.00
2022-12-14T06:14:20.215Z,0.00
2022-12-14T06:15:23.394Z,0.00
2022-12-14T06:16:26.562Z,0.00
2022-12-14T06:17:29.574Z,0.00
2022-12-14T06:18:32.601Z,0.00
2022-12-14T06:19:35.521Z,0.00
2022-12-14T06:20:38.589Z,0.00
2022-12-14T06:21:41.874Z,0.00
2022-12-14T06:22:47.730Z,0.00
2022-12-14T06:23:49.298Z,0.00
2022-12-14T06:24:52.350Z,0.00
2022-12-14T06:25:55.633Z,0.00
2022-12-14T06:26:58.806Z,0.00
2022-12-14T06:28:01.981Z,0.00
2022-12-14T06:29:05.170Z,0.00
2022-12-14T06:30:08.459Z,0.43
2022-12-14T06:31:11.807Z,0.57
2022-12-14T06:32:15.034Z,0.00
2022-12-14T06:33:18.510Z,0.00
2022-12-14T06:34:26.387Z,0.00
2022-12-14T06:35:25.912Z,0.00
2022-12-14T06:36:29.393Z,0.00
2022-12-14T06:37:32.468Z,0.00
2022-12-14T06:38:35.754Z,0.00
2022-12-14T06:39:38.946Z,0.00
2022-12-14T06:40:42.229Z,0.00
2022-12-14T06:41:45.529Z,0.00
2022-12-14T06:42:48.683Z,0.00
2022-12-14T06:43:51.982Z,0.00
2022-12-14T06:44:55.261Z,0.00
2022-12-14T06:45:58.438Z,0.00
2022-12-14T06:47:01.903Z,0.00
2022-12-14T06:48:05.213Z,0.00
2022-12-14T06:49:08.397Z,0.00
2022-12-14T06:50:11.677Z,0.00
2022-12-14T06:51:14.854Z,0.00
2022-12-14T06:52:21.981Z,0.00
2022-12-14T06:53:22.547Z,0.00
2022-12-14T06:54:25.826Z,0.00
2022-12-14T06:55:29.132Z,0.00
2022-12-14T06:56:32.408Z,0.00
2022-12-14T06:57:35.890Z,0.00
2022-12-14T06:58:39.077Z,0.00
2022-12-14T06:59:42.256Z,0.00
2022-12-14T07:00:45.169Z,0.00
2022-12-14T07:01:50.344Z,0.00
2022-12-14T07:02:52.535Z,0.00
2022-12-14T07:03:55.592Z,0.00
2022-12-14T07:04:58.584Z,0.00
2022-12-14T07:06:01.652Z,0.00
2022-12-14T07:07:04.729Z,0.00
2022-12-14T07:08:07.810Z,0.00
2022-12-14T07:09:10.809Z,0.00
2022-12-14T07:10:13.831Z,0.00
2022-12-14T07:11:17.056Z,0.00
2022-12-14T07:12:20.315Z,0.00
2022-12-14T07:13:23.523Z,0.00
2022-12-14T07:14:26.707Z,0.00
2022-12-14T07:15:30.107Z,0.00
2022-12-14T07:16:33.177Z,0.00
2022-12-14T07:17:36.353Z,0.00
2022-12-14T07:18:39.632Z,0.00
2022-12-14T07:19:42.917Z,0.00
2022-12-14T07:20:46.196Z,0.00
2022-12-14T07:21:49.381Z,0.00
2022-12-14T07:22:52.592Z,0.00
2022-12-14T07:23:56.974Z,0.00
2022-12-14T07:24:59.700Z,0.00
2022-12-14T07:26:02.772Z,0.00
2022-12-14T07:27:05.917Z,0.00
2022-12-14T07:28:09.151Z,0.00
2022-12-14T07:29:12.468Z,0.00
2022-12-14T07:30:15.664Z,0.00
2022-12-14T07:31:19.098Z,0.00
2022-12-14T07:32:22.436Z,0.00
2022-12-14T07:33:25.734Z,0.00
2022-12-14T07:34:29.226Z,0.00
2022-12-14T07:35:32.690Z,0.00
2022-12-14T07:36:35.985Z,0.00
2022-12-14T07:37:39.059Z,0.00
2022-12-14T07:38:42.234Z,0.00
2022-12-14T07:39:45.528Z,0.00
2022-12-14T07:40:48.907Z,0.00
2022-12-14T07:41:52.084Z,0.00
2022-12-14T07:42:55.147Z,0.00
2022-12-14T07:43:58.253Z,0.00
2022-12-14T07:45:01.326Z,0.43
2022-12-14T07:46:04.662Z,1.14
2022-12-14T07:47:09.059Z,0.00
2022-12-14T07:49:19.787Z,0.00
2022-12-14T07:50:22.780Z,0.00
2022-12-14T07:51:25.959Z,0.00
2022-12-14T07:52:31.622Z,0.00
2022-12-14T07:53:33.536Z,0.00
2022-12-14T07:54:36.722Z,0.00
2022-12-14T07:55:40.003Z,0.00
2022-12-14T07:56:43.325Z,0.00
2022-12-14T07:57:46.446Z,0.00
2022-12-14T07:58:49.660Z,0.00
2022-12-14T07:59:57.275Z,0.00
2022-12-14T08:00:56.951Z,0.00
2022-12-14T08:02:00.426Z,0.00
2022-12-14T08:03:03.421Z,0.00
2022-12-14T08:04:06.585Z,0.00
2022-12-14T08:05:12.466Z,0.00
2022-12-14T08:06:13.672Z,0.00
2022-12-14T08:07:16.745Z,0.00
2022-12-14T08:08:19.678Z,0.00
2022-12-14T08:09:22.811Z,0.00
2022-12-14T08:10:25.782Z,0.00
2022-12-14T08:11:28.866Z,0.00
2022-12-14T08:12:32.052Z,0.00
2022-12-14T08:13:35.236Z,0.00
2022-12-14T08:14:38.319Z,0.00
2022-12-14T08:15:41.402Z,0.00
2022-12-14T08:16:44.476Z,0.00
2022-12-14T08:17:47.453Z,0.00
2022-12-14T08:18:50.495Z,0.00
2022-12-14T08:19:53.515Z,0.00
2022-12-14T08:20:56.471Z,0.00
2022-12-14T08:21:59.557Z,0.00
2022-12-14T08:23:02.736Z,0.00
2022-12-14T08:24:05.813Z,0.00
2022-12-14T08:25:08.906Z,0.00
2022-12-14T08:26:12.082Z,0.00
2022-12-14T08:27:15.259Z,0.00
2022-12-14T08:28:18.246Z,0.00
2022-12-14T08:29:21.213Z,0.00
2022-12-14T08:30:24.206Z,0.00
2022-12-14T08:31:27.200Z,0.00
2022-12-14T08:32:34.245Z,0.00
2022-12-14T08:33:34.450Z,0.00
2022-12-14T08:34:37.429Z,0.00
2022-12-14T08:35:40.428Z,0.00
2022-12-14T08:36:43.403Z,0.00
2022-12-14T08:37:47.713Z,0.00
2022-12-14T08:38:50.448Z,0.00
2022-12-14T08:39:53.442Z,0.00
2022-12-14T08:40:57.238Z,0.00
2022-12-14T08:42:00.519Z,0.00
2022-12-14T08:43:03.600Z,0.00
2022-12-14T08:44:06.688Z,0.00
2022-12-14T08:45:09.755Z,0.00
2022-12-14T08:46:12.899Z,0.00
2022-12-14T08:47:15.941Z,0.00
2022-12-14T08:48:18.891Z,0.00
2022-12-14T08:49:21.971Z,0.00
2022-12-14T08:50:25.131Z,0.00
2022-12-14T08:51:28.247Z,0.00
2022-12-14T08:52:31.312Z,0.00
2022-12-14T08:53:34.331Z,0.00
2022-12-14T08:54:37.470Z,0.00
2022-12-14T08:55:40.760Z,0.00
2022-12-14T08:56:43.838Z,0.00
2022-12-14T08:57:47.017Z,0.00
2022-12-14T08:58:50.197Z,0.00
2022-12-14T09:00:01.141Z,0.00
2022-12-14T09:00:57.445Z,0.00
2022-12-14T09:02:00.839Z,0.00
2022-12-14T09:03:03.981Z,0.00
2022-12-14T09:04:07.029Z,0.00
2022-12-14T09:05:10.106Z,0.00
2022-12-14T09:06:13.288Z,0.00
2022-12-14T09:07:16.470Z,0.00
2022-12-14T09:08:19.552Z,0.00
2022-12-14T09:09:22.744Z,0.00
2022-12-14T09:10:25.816Z,0.00
2022-12-14T09:11:29.009Z,0.00
2022-12-14T09:12:31.981Z,0.00
2022-12-14T09:13:35.054Z,0.00
2022-12-14T09:14:37.983Z,0.00
2022-12-14T09:15:40.916Z,0.00
2022-12-14T09:16:44.134Z,0.00
2022-12-14T09:17:47.176Z,0.00
2022-12-14T09:18:50.255Z,0.00
2022-12-14T09:19:53.319Z,0.00
2022-12-14T09:20:56.402Z,0.00
2022-12-14T09:21:59.514Z,0.00
2022-12-14T09:23:02.457Z,0.00
2022-12-14T09:24:05.652Z,0.00
2022-12-14T09:25:08.627Z,0.00
2022-12-14T09:26:11.499Z,0.00
2022-12-14T09:27:14.681Z,0.00
2022-12-14T09:28:17.764Z,0.00
2022-12-14T09:29:20.749Z,0.00
2022-12-14T09:30:26.843Z,0.00
2022-12-14T09:31:28.061Z,0.00
2022-12-14T09:32:31.319Z,0.00
2022-12-14T09:33:34.507Z,0.00
2022-12-14T09:34:37.572Z,0.00
2022-12-14T09:35:40.654Z,0.00
2022-12-14T09:36:43.726Z,0.00
2022-12-14T09:37:46.909Z,0.00
2022-12-14T09:38:51.968Z,0.00
2022-12-14T09:39:54.396Z,0.00
2022-12-14T09:40:57.888Z,0.00
2022-12-14T09:42:01.455Z,0.00
2022-12-14T09:43:04.666Z,0.00
2022-12-14T09:44:09.607Z,0.00
2022-12-14T09:45:12.069Z,0.00
2022-12-14T09:46:15.359Z,0.00
2022-12-14T09:47:18.627Z,0.00
2022-12-14T09:48:21.799Z,0.00
2022-12-14T09:49:25.085Z,0.00
2022-12-14T09:50:28.470Z,0.00
2022-12-14T09:51:31.674Z,0.00
2022-12-14T09:52:34.933Z,0.00
2022-12-14T09:53:38.634Z,0.00
2022-12-14T09:54:41.818Z,0.00
2022-12-14T09:55:44.989Z,0.00
2022-12-14T09:56:48.294Z,0.00
2022-12-14T09:57:51.560Z,0.00
2022-12-14T09:58:54.842Z,0.00
2022-12-14T09:59:58.245Z,0.00
2022-12-14T10:01:01.151Z,0.00
2022-12-14T10:02:29.912Z,0.00
2022-12-14T10:03:09.064Z,0.00
2022-12-14T10:04:12.487Z,0.00
2022-12-14T10:05:15.778Z,0.00
2022-12-14T10:06:19.032Z,0.00
2022-12-14T10:07:22.349Z,0.00
2022-12-14T10:08:25.528Z,0.00
2022-12-14T10:09:28.934Z,0.00
2022-12-14T10:10:32.299Z,0.00
2022-12-14T10:11:35.610Z,0.00
2022-12-14T10:12:38.875Z,0.00
2022-12-14T10:13:41.840Z,0.00
2022-12-14T10:14:45.038Z,0.00
2022-12-14T10:15:48.312Z,0.00
2022-12-14T10:16:52.328Z,0.00
2022-12-14T10:17:55.919Z,0.00
2022-12-14T10:19:00.688Z,0.00
2022-12-14T10:20:03.602Z,0.00
2022-12-14T10:21:06.887Z,0.00
2022-12-14T10:22:10.171Z,0.00
2022-12-14T10:23:15.839Z,0.00
2022-12-14T10:24:18.066Z,0.00
2022-12-14T10:25:21.352Z,0.00
2022-12-14T10:26:24.645Z,0.00
2022-12-14T10:27:34.075Z,0.00
2022-12-14T10:28:32.413Z,0.00
2022-12-14T10:29:35.828Z,0.00
2022-12-14T10:30:39.114Z,0.00
2022-12-14T10:31:42.375Z,0.00
2022-12-14T10:32:45.570Z,0.00
2022-12-14T10:33:48.890Z,0.00
2022-12-14T10:34:52.144Z,0.00
2022-12-14T10:35:55.428Z,0.00
2022-12-14T10:36:58.710Z,0.00
2022-12-14T10:38:02.098Z,0.00
2022-12-14T10:39:05.290Z,0.00
2022-12-14T10:40:14.615Z,0.00
2022-12-14T10:41:12.768Z,0.00
2022-12-14T10:42:15.951Z,0.00
2022-12-14T10:43:19.271Z,0.00
2022-12-14T10:44:22.343Z,0.00
2022-12-14T10:45:41.605Z,0.00
2022-12-14T10:46:30.041Z,0.00
2022-12-14T10:47:33.611Z,0.00
2022-12-14T10:48:36.792Z,0.00
2022-12-14T10:49:40.502Z,0.00
2022-12-14T10:50:43.970Z,0.00
2022-12-14T10:51:48.557Z,0.00
2022-12-14T10:52:52.369Z,0.00
2022-12-14T10:53:56.170Z,0.00
2022-12-14T10:54:59.890Z,0.00
2022-12-14T10:56:04.062Z,0.00
2022-12-14T10:57:07.260Z,0.00
2022-12-14T10:58:10.961Z,0.00
2022-12-14T10:59:14.547Z,0.00
2022-12-14T11:00:22.825Z,0.00
2022-12-14T11:01:22.625Z,0.00
2022-12-14T11:02:26.391Z,0.00
2022-12-14T11:03:29.875Z,0.00
2022-12-14T11:04:32.909Z,0.00
2022-12-14T11:05:36.978Z,0.00
2022-12-14T11:06:40.510Z,0.00
2022-12-14T11:07:43.582Z,0.00
2022-12-14T11:08:48.309Z,0.00
2022-12-14T11:09:50.965Z,0.00
2022-12-14T11:10:54.289Z,0.00
2022-12-14T11:11:57.766Z,0.00
2022-12-14T11:13:01.554Z,0.00
2022-12-14T11:14:04.929Z,0.00
2022-12-14T11:15:07.871Z,0.00
2022-12-14T11:16:10.739Z,0.00
2022-12-14T11:17:14.061Z,0.00
2022-12-14T11:18:17.011Z,0.00
2022-12-14T11:19:19.952Z,0.00
2022-12-14T11:20:22.659Z,0.00
2022-12-14T11:21:25.462Z,0.00
2022-12-14T11:22:28.211Z,0.00
2022-12-14T11:23:31.079Z,0.00
2022-12-14T11:24:33.909Z,0.00
2022-12-14T11:25:36.744Z,0.00
2022-12-14T11:26:39.535Z,0.00
2022-12-14T11:27:42.231Z,0.00
2022-12-14T11:28:45.341Z,0.00
2022-12-14T11:29:48.909Z,0.00
2022-12-14T11:30:51.443Z,0.00
2022-12-14T11:31:54.231Z,0.00
2022-12-14T11:32:57.016Z,0.00
2022-12-14T11:33:59.869Z,0.00
2022-12-14T11:35:02.559Z,0.00
2022-12-14T11:36:05.229Z,0.00
2022-12-14T11:37:07.990Z,0.00
2022-12-14T11:38:10.782Z,0.00
2022-12-14T11:39:13.563Z,0.00
2022-12-14T11:40:16.307Z,0.00
2022-12-14T11:41:18.991Z,0.00
2022-12-14T11:42:21.827Z,0.00
2022-12-14T11:43:24.669Z,0.00
2022-12-14T11:44:27.372Z,0.00
2022-12-14T11:45:30.107Z,0.00
2022-12-14T11:46:32.684Z,0.00
2022-12-14T11:47:35.410Z,0.00
2022-12-14T11:48:38.211Z,0.00
2022-12-14T11:49:40.914Z,0.00
2022-12-14T11:50:43.590Z,0.00
2022-12-14T11:51:46.367Z,0.00
2022-12-14T11:52:50.307Z,0.00
2022-12-14T11:53:53.149Z,0.00
2022-12-14T11:54:55.631Z,0.00
2022-12-14T11:55:58.138Z,0.00
2022-12-14T11:57:00.717Z,0.00
2022-12-14T11:58:03.229Z,0.00
2022-12-14T11:59:05.747Z,0.00
2022-12-14T12:00:08.226Z,0.00
2022-12-14T12:01:10.860Z,0.00
2022-12-14T12:02:13.714Z,0.00
2022-12-14T12:03:16.643Z,0.00
2022-12-14T12:04:19.463Z,0.00
2022-12-14T12:05:22.212Z,0.00
2022-12-14T12:06:25.024Z,0.00
2022-12-14T12:07:27.903Z,0.00
2022-12-14T12:08:31.070Z,0.00
2022-12-14T12:09:34.060Z,0.00
2022-12-14T12:10:36.555Z,0.00
2022-12-14T12:11:39.123Z,0.00
2022-12-14T12:12:42.022Z,0.00
2022-12-14T12:13:44.825Z,0.00
2022-12-14T12:14:48.872Z,0.00
2022-12-14T12:15:51.727Z,0.00
2022-12-14T12:16:54.569Z,0.00
2022-12-14T12:17:57.403Z,0.00
2022-12-14T12:19:00.190Z,0.00
2022-12-14T12:20:03.068Z,0.00
2022-12-14T12:21:05.724Z,0.00
2022-12-14T12:22:08.309Z,0.00
2022-12-14T12:23:11.120Z,0.00
2022-12-14T12:24:13.823Z,0.00
2022-12-14T12:25:26.512Z,0.00
2022-12-14T12:26:20.473Z,0.00
2022-12-14T12:27:23.372Z,0.00
2022-12-14T12:28:26.264Z,0.00
2022-12-14T12:29:29.075Z,0.00
2022-12-14T12:30:31.770Z,0.00
2022-12-14T12:31:34.400Z,0.00
2022-12-14T12:32:37.327Z,0.00
2022-12-14T12:33:39.892Z,0.00
2022-12-14T12:34:42.724Z,0.00
2022-12-14T12:35:45.622Z,0.00
2022-12-14T12:37:17.429Z,0.00
2022-12-14T12:37:52.363Z,0.00
2022-12-14T12:38:55.131Z,0.00
2022-12-14T12:39:57.927Z,0.17
2022-12-14T12:41:00.772Z,0.00
2022-12-14T12:42:05.558Z,0.00
2022-12-14T12:43:08.560Z,0.00
2022-12-14T12:44:11.186Z,0.00
2022-12-14T12:45:13.845Z,0.00
2022-12-14T12:46:16.450Z,0.00
2022-12-14T12:47:33.374Z,0.00
2022-12-14T12:48:22.948Z,0.00
2022-12-14T12:49:25.553Z,0.00
2022-12-14T12:50:28.159Z,0.00
2022-12-14T12:51:30.773Z,0.00
2022-12-14T12:52:33.250Z,0.00
2022-12-14T12:53:36.072Z,0.00
2022-12-14T12:54:38.759Z,0.00
2022-12-14T12:55:41.531Z,0.00
2022-12-14T12:56:44.194Z,0.00
2022-12-14T12:57:51.131Z,0.00
2022-12-14T12:58:53.942Z,0.00
2022-12-14T12:59:56.511Z,0.00
2022-12-14T13:00:59.190Z,0.00
2022-12-14T13:02:01.875Z,0.00
2022-12-14T13:03:04.735Z,0.00
2022-12-14T13:04:07.597Z,0.00
2022-12-14T13:05:44.055Z,0.00
2022-12-14T13:06:13.926Z,0.00
2022-12-14T13:07:16.504Z,0.00
2022-12-14T13:08:19.366Z,0.33
2022-12-14T13:09:21.998Z,0.50
2022-12-14T13:10:24.660Z,0.00
2022-12-14T13:11:27.928Z,0.00
2022-12-14T13:12:30.802Z,0.00
2022-12-14T13:13:33.664Z,0.00
2022-12-14T13:14:36.266Z,0.17
2022-12-14T13:15:38.942Z,0.00
2022-12-14T13:16:41.861Z,0.00
2022-12-14T13:17:44.668Z,0.00
2022-12-14T13:19:02.048Z,0.00
2022-12-14T13:19:54.534Z,0.00
2022-12-14T13:20:55.662Z,0.50
2022-12-14T13:22:03.322Z,0.67
2022-12-14T13:23:15.199Z,0.00
2022-12-14T13:24:05.845Z,0.00
2022-12-14T13:25:08.471Z,0.00
2022-12-14T13:26:13.407Z,0.00
2022-12-14T13:27:17.738Z,0.00
2022-12-14T13:28:18.811Z,0.25
2022-12-14T13:29:21.696Z,0.67
2022-12-14T13:30:24.206Z,0.00
2022-12-14T13:31:26.779Z,0.00
2022-12-14T13:32:33.860Z,0.00
2022-12-14T13:33:33.125Z,0.00
2022-12-14T13:34:35.950Z,0.00
2022-12-14T13:35:38.569Z,0.00
2022-12-14T13:36:41.126Z,0.00
2022-12-14T13:37:43.727Z,0.00
2022-12-14T13:38:46.315Z,0.00
2022-12-14T13:39:50.803Z,0.00
2022-12-14T13:40:52.587Z,0.00
2022-12-14T13:41:55.131Z,0.00
2022-12-14T13:42:57.692Z,0.00
2022-12-14T13:44:00.205Z,0.00
2022-12-14T13:45:02.769Z,0.00
2022-12-14T13:46:05.373Z,0.00
2022-12-14T13:47:08.064Z,0.00
2022-12-14T13:48:10.953Z,0.00
2022-12-14T13:49:13.770Z,0.00
2022-12-14T13:51:20.089Z,0.00
2022-12-14T13:52:22.728Z,0.00
2022-12-14T13:53:25.514Z,0.00
2022-12-14T13:54:28.097Z,0.00
2022-12-14T13:55:30.764Z,0.00
2022-12-14T13:56:33.816Z,0.00
2022-12-14T13:57:36.963Z,0.00
2022-12-14T13:58:39.557Z,0.00
2022-12-14T13:59:42.098Z,0.00
2022-12-14T14:00:44.732Z,0.00
2022-12-14T14:01:47.416Z,0.00
2022-12-14T14:02:50.268Z,0.00
2022-12-14T14:03:53.166Z,0.00
2022-12-14T14:04:55.829Z,0.00
2022-12-14T14:05:58.387Z,0.00
2022-12-14T14:07:01.071Z,0.00
2022-12-14T14:08:03.719Z,0.00
2022-12-14T14:09:06.639Z,0.00
2022-12-14T14:10:09.162Z,0.00
2022-12-14T14:11:35.998Z,0.00
2022-12-14T14:12:15.504Z,0.00
2022-12-14T14:13:18.142Z,0.00
2022-12-14T14:14:20.754Z,0.00
2022-12-14T14:15:26.287Z,0.00
2022-12-14T14:16:28.924Z,0.00
2022-12-14T14:17:30.925Z,0.00
2022-12-14T14:18:33.902Z,0.00
2022-12-14T14:19:36.744Z,0.00
2022-12-14T14:20:39.266Z,0.00
2022-12-14T14:22:14.125Z,0.00
2022-12-14T14:22:46.007Z,0.00
2022-12-14T14:23:48.587Z,0.00
2022-12-14T14:24:51.205Z,0.00